Terminal Aerodrome Forecast
Issued by NWS

Home | Current Version | Previous Version | Text Only | Print | Product List | Glossary On
Versions: 1 2 3 4 5 6 7 8 9 10 11 12 13 14 15 16 17 18 19 20 21
000
FTUS41 KBTV 281739
TAFSLK
TAF
KSLK 281739Z 2818/2918 27009G18KT P6SM SCT070
     FM290000 25006KT P6SM FEW200
     FM291000 21005KT P6SM VCSH BKN070
     FM291300 19004KT 3SM -RA BR OVC045=

USA.gov is the U.S. government's official web portal to all federal, state and local government web resources and services.